Time;durP1;ratioP1;P1;durP2;ratioP2;P2;SDS_P1;SDS_P2;PMS_P1;PMS_P2;Temp;Humidity;BMP_temperature;BMP_pressure;BME280_temperature;BME280_humidity;BME280_pressure;Samples;Min_cycle;Max_cycle;Signal;HPM_P1;HPM_P2
2022/09/17 00:00:55;;;;;;;23.30;7.23;;;11.70;98.00;;;;;;5015848;28;20464;-62
2022/09/17 00:03:22;;;;;;;14.80;4.27;;;11.70;98.10;;;;;;5017344;28;20795;-63
2022/09/17 00:05:48;;;;;;;15.00;5.20;;;12.20;98.30;;;;;;5021559;28;20492;-62
2022/09/17 00:08:17;;;;;;;13.73;6.77;;;;;;;;;;5020505;28;20484;-63
2022/09/17 00:10:44;;;;;;;23.20;4.37;;;11.70;98.20;;;;;;5019364;28;20468;-61
2022/09/17 00:13:12;;;;;;;17.33;7.30;;;11.80;98.10;;;;;;5024531;28;20476;-62
2022/09/17 00:15:42;;;;;;;8.33;4.37;;;11.70;97.90;;;;;;5023111;28;20477;-62
2022/09/17 00:18:09;;;;;;;19.07;6.43;;;11.80;97.90;;;;;;5015212;28;20488;-61
2022/09/17 00:20:38;;;;;;;24.40;5.60;;;11.80;97.90;;;;;;5017743;28;20479;-62
2022/09/17 00:23:05;;;;;;;16.53;9.33;;;11.90;97.90;;;;;;5024040;28;20485;-63
2022/09/17 00:25:33;;;;;;;18.77;4.17;;;11.90;97.80;;;;;;5022533;28;20481;-62
2022/09/17 00:28:00;;;;;;;18.13;8.60;;;11.80;97.80;;;;;;4989202;28;20472;-63
2022/09/17 00:30:27;;;;;;;14.10;7.80;;;11.70;97.80;;;;;;5005279;28;20484;-62
2022/09/17 00:32:56;;;;;;;12.43;4.40;;;11.70;97.90;;;;;;5008723;28;20500;-62
2022/09/17 00:35:23;;;;;;;19.63;6.67;;;11.70;97.90;;;;;;5010533;28;21028;-62
2022/09/17 00:37:50;;;;;;;13.70;5.23;;;;;;;;;;5001371;28;21014;-62
2022/09/17 00:40:17;;;;;;;17.47;6.03;;;;;;;;;;5007504;28;20520;-62
2022/09/17 00:42:45;;;;;;;7.83;3.40;;;11.60;98.40;;;;;;5010016;28;20971;-62
2022/09/17 00:45:12;;;;;;;17.23;8.10;;;12.00;98.50;;;;;;5010208;28;20481;-62
2022/09/17 00:47:42;;;;;;;19.80;5.90;;;11.60;98.40;;;;;;5005890;28;20505;-62
2022/09/17 00:50:13;;;;;;;25.23;9.33;;;11.60;98.50;;;;;;5007254;28;20584;-62
2022/09/17 00:52:43;;;;;;;10.97;4.03;;;;;;;;;;5011192;28;20481;-62
2022/09/17 00:55:16;;;;;;;26.93;9.97;;;11.50;98.60;;;;;;5004501;28;20651;-62
2022/09/17 00:57:46;;;;;;;10.13;4.67;;;11.50;98.70;;;;;;5007256;28;20490;-61
2022/09/17 01:00:14;;;;;;;14.37;5.90;;;11.40;98.80;;;;;;4997566;28;20713;-61
2022/09/17 01:02:42;;;;;;;11.13;5.07;;;11.40;99.00;;;;;;5008046;28;20975;-62
2022/09/17 01:05:10;;;;;;;31.27;9.43;;;;;;;;;;5010552;28;20490;-61
2022/09/17 01:07:50;;;;;;;12.27;6.40;;;;;;;;;;4996619;28;20482;-61
2022/09/17 01:10:31;;;;;;;17.17;6.97;;;11.20;99.00;;;;;;5000489;28;20485;-62
2022/09/17 01:13:12;;;;;;;20.67;8.50;;;11.30;99.20;;;;;;5004699;28;21005;-62
2022/09/17 01:15:43;;;;;;;24.13;7.43;;;;;;;;;;5006424;28;20934;-61
2022/09/17 01:18:21;;;;;;;20.63;10.43;;;11.20;99.20;;;;;;4991087;28;20469;-62
2022/09/17 01:21:31;;;;;;;10.60;4.57;;;11.20;99.20;;;;;;5003717;28;20466;-62
2022/09/17 01:24:17;;;;;;;24.67;8.80;;;;;;;;;;5005772;28;20925;-62
2022/09/17 01:27:13;;;;;;;10.50;4.37;;;11.20;99.40;;;;;;5004534;28;20507;-62
2022/09/17 01:29:50;;;;;;;13.47;5.97;;;;;;;;;;4991613;28;20478;-62
2022/09/17 01:32:20;;;;;;;15.03;5.73;;;;;;;;;;4995232;28;20486;-61
2022/09/17 01:34:58;;;;;;;24.37;5.20;;;11.30;99.20;;;;;;4997681;28;20477;-61
2022/09/17 01:37:31;;;;;;;18.83;8.83;;;11.20;99.10;;;;;;5001326;28;20691;-61
2022/09/17 01:40:05;;;;;;;17.27;6.67;;;11.30;99.10;;;;;;5000178;28;20599;-62
2022/09/17 01:42:38;;;;;;;16.87;7.37;;;11.30;99.10;;;;;;5007527;28;20485;-61
2022/09/17 01:45:10;;;;;;;20.43;8.00;;;11.20;99.10;;;;;;5001821;28;20463;-62
2022/09/17 01:47:42;;;;;;;21.40;7.30;;;11.30;99.10;;;;;;4998884;28;20497;-63
2022/09/17 01:50:12;;;;;;;19.13;9.40;;;11.20;99.00;;;;;;4998556;28;20731;-62
2022/09/17 01:52:41;;;;;;;22.03;4.90;;;;;;;;;;4988064;28;20486;-61
2022/09/17 01:55:10;;;;;;;17.73;8.40;;;;;;;;;;4990764;28;20509;-62
2022/09/17 01:57:40;;;;;;;21.10;5.67;;;;;;;;;;4989806;28;20822;-62
2022/09/17 02:00:09;;;;;;;25.53;9.97;;;11.00;99.50;;;;;;4987496;28;20477;-62
2022/09/17 02:02:40;;;;;;;16.40;5.80;;;;;;;;;;4987546;28;20467;-62
2022/09/17 02:05:11;;;;;;;16.27;8.50;;;10.90;99.70;;;;;;4997938;28;20565;-62
2022/09/17 02:07:41;;;;;;;11.00;6.87;;;10.80;99.80;;;;;;4995186;28;20548;-62
2022/09/17 02:10:12;;;;;;;22.50;10.53;;;10.80;99.90;;;;;;4984006;28;20486;-62
2022/09/17 02:12:40;;;;;;;17.13;5.50;;;10.70;99.90;;;;;;4993941;28;20493;-62
2022/09/17 02:15:11;;;;;;;20.13;9.80;;;10.70;99.90;;;;;;4995900;28;20914;-62
2022/09/17 02:17:43;;;;;;;37.03;10.83;;;;;;;;;;4989544;28;20494;-61
2022/09/17 02:20:11;;;;;;;20.93;8.90;;;10.70;99.90;;;;;;4994514;28;20486;-61
2022/09/17 02:22:43;;;;;;;15.23;6.87;;;10.70;99.90;;;;;;4994194;28;20527;-62
2022/09/17 02:25:17;;;;;;;25.60;9.17;;;10.80;99.90;;;;;;4992453;28;20904;-61
2022/09/17 02:27:52;;;;;;;18.00;6.77;;;10.70;99.90;;;;;;4994889;28;20488;-61
2022/09/17 02:30:19;;;;;;;25.23;8.00;;;10.70;99.90;;;;;;4992825;28;20473;-62
2022/09/17 02:32:48;;;;;;;17.63;7.17;;;10.80;99.90;;;;;;4996056;28;20723;-61
2022/09/17 02:35:15;;;;;;;20.63;7.50;;;10.80;99.90;;;;;;4992702;28;20743;-61
2022/09/17 02:37:43;;;;;;;29.37;7.60;;;;;;;;;;4994521;28;20517;-60
2022/09/17 02:40:12;;;;;;;15.97;9.00;;;10.80;99.90;;;;;;4992532;28;20529;-61
2022/09/17 02:42:47;;;;;;;13.90;5.97;;;;;;;;;;4990899;28;20489;-61
2022/09/17 02:45:19;;;;;;;27.43;7.43;;;10.90;99.90;;;;;;5001816;28;20905;-61
2022/09/17 02:48:07;;;;;;;14.50;6.17;;;;;;;;;;4994394;28;20488;-60
2022/09/17 02:50:52;;;;;;;20.53;7.00;;;10.90;99.70;;;;;;4992426;28;20478;-63
2022/09/17 02:53:33;;;;;;;15.80;7.63;;;10.90;99.80;;;;;;4995325;28;20478;-62
2022/09/17 02:56:06;;;;;;;30.37;9.87;;;10.80;99.70;;;;;;4995102;28;20483;-62
2022/09/17 02:58:40;;;;;;;42.40;10.40;;;10.80;99.80;;;;;;4997735;28;20566;-62
2022/09/17 03:01:12;;;;;;;40.23;11.83;;;10.80;99.90;;;;;;5014110;28;20503;-62
2022/09/17 03:03:40;;;;;;;23.27;8.23;;;;;;;;;;5012947;28;20481;-62
2022/09/17 03:06:08;;;;;;;33.37;8.83;;;10.80;99.90;;;;;;5015046;28;20480;-62
2022/09/17 03:08:38;;;;;;;20.83;7.90;;;;;;;;;;5012833;28;20608;-62
2022/09/17 03:11:07;;;;;;;30.23;11.80;;;11.00;99.90;;;;;;5009066;28;20579;-62
2022/09/17 03:13:35;;;;;;;27.77;8.53;;;11.00;99.90;;;;;;5024571;28;20924;-62
2022/09/17 03:16:02;;;;;;;32.50;13.13;;;11.00;99.90;;;;;;5010355;28;20477;-61
2022/09/17 03:18:29;;;;;;;25.00;10.57;;;;;;;;;;5010504;28;20489;-60
2022/09/17 03:20:56;;;;;;;25.03;10.03;;;10.90;99.90;;;;;;5012496;28;20477;-62
2022/09/17 03:23:24;;;;;;;24.97;8.20;;;11.00;99.90;;;;;;5015268;28;21122;-61
2022/09/17 03:25:51;;;;;;;22.20;6.90;;;11.00;99.90;;;;;;5016141;28;20481;-62
2022/09/17 03:28:18;;;;;;;20.43;9.67;;;11.00;99.90;;;;;;5012486;28;20481;-61
2022/09/17 03:30:45;;;;;;;20.03;8.87;;;11.00;99.90;;;;;;5015338;28;20477;-61
2022/09/17 03:33:12;;;;;;;28.30;11.33;;;11.00;99.90;;;;;;5014810;28;20481;-60
2022/09/17 03:35:42;;;;;;;27.93;8.33;;;11.00;99.90;;;;;;5019703;28;20488;-62
2022/09/17 03:38:09;;;;;;;38.57;12.47;;;10.90;99.90;;;;;;5012093;28;20481;-61
2022/09/17 03:40:37;;;;;;;20.80;8.47;;;11.00;99.90;;;;;;5013767;28;20472;-60
2022/09/17 03:43:04;;;;;;;26.77;11.57;;;11.00;99.90;;;;;;5013157;28;20512;-61
2022/09/17 03:45:31;;;;;;;22.53;7.90;;;11.10;99.90;;;;;;5014816;28;20580;-61
2022/09/17 03:47:58;;;;;;;16.17;8.40;;;11.10;99.90;;;;;;5013416;28;20512;-60
2022/09/17 03:50:25;;;;;;;13.23;8.90;;;11.10;99.90;;;;;;5014855;28;20481;-60
2022/09/17 03:52:52;;;;;;;11.70;6.43;;;11.20;99.90;;;;;;5012665;28;20846;-60
2022/09/17 03:55:18;;;;;;;11.23;7.73;;;11.20;99.90;;;;;;5012209;28;20864;-60
2022/09/17 03:57:46;;;;;;;13.43;6.83;;;11.20;99.90;;;;;;5008353;28;20489;-60
2022/09/17 04:00:16;;;;;;;24.43;9.90;;;11.10;99.90;;;;;;5016268;28;21509;-61
2022/09/17 04:02:43;;;;;;;17.70;7.50;;;;;;;;;;5017068;28;20493;-61
2022/09/17 04:05:10;;;;;;;36.63;11.73;;;;;;;;;;5010589;28;20484;-60
2022/09/17 04:07:37;;;;;;;29.93;9.70;;;;;;;;;;5030904;28;20667;-61
2022/09/17 04:10:05;;;;;;;27.07;11.00;;;11.20;99.90;;;;;;5018019;28;20480;-61
2022/09/17 04:12:32;;;;;;;28.70;9.90;;;11.20;99.90;;;;;;5017061;28;20913;-61
2022/09/17 04:15:00;;;;;;;28.43;10.67;;;;;;;;;;5018591;28;20809;-61
2022/09/17 04:17:27;;;;;;;35.20;9.70;;;11.20;99.90;;;;;;5015549;28;21182;-61
2022/09/17 04:19:54;;;;;;;25.73;8.80;;;11.10;99.80;;;;;;5018028;28;20477;-62
2022/09/17 04:22:21;;;;;;;24.33;8.83;;;11.10;99.90;;;;;;5018566;28;20825;-60
2022/09/17 04:24:47;;;;;;;23.77;6.80;;;11.20;99.90;;;;;;5017102;28;20485;-62
2022/09/17 04:27:14;;;;;;;22.80;9.70;;;11.20;99.90;;;;;;5015875;28;20504;-61
2022/09/17 04:29:41;;;;;;;22.93;8.23;;;11.20;99.80;;;;;;5012268;28;20481;-60
2022/09/17 04:32:09;;;;;;;24.80;10.30;;;11.10;99.90;;;;;;5015706;28;20485;-61
2022/09/17 04:34:36;;;;;;;25.50;9.63;;;11.10;99.80;;;;;;5018489;28;20866;-61
2022/09/17 04:37:02;;;;;;;24.83;8.47;;;11.10;99.90;;;;;;5017480;28;20829;-62
2022/09/17 04:39:29;;;;;;;40.90;8.60;;;11.10;99.90;;;;;;5015876;28;20844;-62
2022/09/17 04:41:56;;;;;;;26.23;9.40;;;11.00;99.90;;;;;;5026080;28;20476;-62
2022/09/17 04:44:22;;;;;;;20.13;8.60;;;11.00;99.90;;;;;;5019128;28;20488;-61
2022/09/17 04:46:49;;;;;;;28.60;8.07;;;11.10;99.90;;;;;;5017015;28;20826;-62
2022/09/17 04:49:17;;;;;;;24.97;10.00;;;;;;;;;;5014198;28;20848;-61
2022/09/17 04:51:44;;;;;;;17.30;7.87;;;11.00;99.90;;;;;;5009521;28;20488;-60
2022/09/17 04:54:11;;;;;;;43.23;13.13;;;11.00;99.90;;;;;;5027777;28;20846;-61
2022/09/17 04:56:37;;;;;;;23.50;9.60;;;11.10;99.90;;;;;;5016358;28;20476;-61
2022/09/17 04:59:04;;;;;;;34.53;13.10;;;11.00;99.90;;;;;;5017988;28;20512;-61
2022/09/17 05:01:31;;;;;;;18.63;6.10;;;11.10;99.90;;;;;;5014458;28;20493;-61
2022/09/17 05:03:57;;;;;;;29.93;11.40;;;11.20;99.90;;;;;;5014329;28;20852;-60
2022/09/17 05:06:25;;;;;;;26.53;10.27;;;11.20;99.90;;;;;;5016806;28;20485;-61
2022/09/17 05:08:52;;;;;;;22.17;9.13;;;11.10;99.90;;;;;;5014968;28;20484;-61
2022/09/17 05:11:19;;;;;;;23.87;8.80;;;11.20;99.90;;;;;;5007841;28;20493;-60
2022/09/17 05:13:45;;;;;;;17.17;7.50;;;11.10;99.80;;;;;;5030667;28;20485;-61
2022/09/17 05:16:12;;;;;;;25.43;9.63;;;11.10;99.90;;;;;;5016463;28;20476;-61
2022/09/17 05:18:39;;;;;;;15.47;7.20;;;11.10;99.90;;;;;;5007477;28;20488;-61
2022/09/17 05:21:06;;;;;;;39.27;14.57;;;11.10;99.90;;;;;;5015531;28;20481;-61
2022/09/17 05:23:34;;;;;;;43.90;9.40;;;11.10;99.90;;;;;;5015889;28;21203;-61
2022/09/17 05:26:01;;;;;;;25.23;11.40;;;11.10;99.90;;;;;;5015678;28;20496;-60
2022/09/17 05:28:28;;;;;;;25.00;11.97;;;11.00;99.90;;;;;;5015090;28;20547;-61
2022/09/17 05:30:58;;;;;;;17.83;9.47;;;11.00;99.90;;;;;;5015509;28;20478;-62
2022/09/17 05:33:25;;;;;;;23.77;7.53;;;11.00;99.90;;;;;;5015411;28;21158;-62
2022/09/17 05:35:52;;;;;;;16.70;6.63;;;11.00;99.90;;;;;;5013044;28;20484;-62
2022/09/17 05:38:19;;;;;;;26.60;8.70;;;11.00;99.90;;;;;;5014820;28;20821;-62
2022/09/17 05:40:47;;;;;;;13.33;6.20;;;11.00;99.90;;;;;;5021847;28;21003;-62
2022/09/17 05:43:14;;;;;;;26.50;10.70;;;11.00;99.90;;;;;;5015507;28;20546;-61
2022/09/17 05:45:41;;;;;;;18.70;6.17;;;11.00;99.90;;;;;;5015958;28;20495;-62
2022/09/17 05:48:12;;;;;;;32.47;12.70;;;11.00;99.90;;;;;;5014804;28;20496;-61
2022/09/17 05:50:38;;;;;;;24.80;9.63;;;11.00;99.90;;;;;;5016778;28;20882;-61
2022/09/17 05:53:06;;;;;;;31.63;11.23;;;11.10;99.90;;;;;;5015896;28;20482;-61
2022/09/17 05:55:34;;;;;;;22.00;8.80;;;11.10;99.90;;;;;;5014814;28;20520;-62
2022/09/17 05:58:09;;;;;;;30.13;11.03;;;11.10;99.90;;;;;;5013954;28;20556;-61
2022/09/17 06:00:36;;;;;;;32.93;7.60;;;11.10;99.90;;;;;;5015244;28;20543;-62
2022/09/17 06:03:04;;;;;;;35.43;12.80;;;11.20;99.90;;;;;;5017656;28;20559;-61
2022/09/17 06:05:31;;;;;;;13.33;6.03;;;11.20;99.90;;;;;;5015627;28;20488;-62
2022/09/17 06:07:57;;;;;;;22.27;6.90;;;11.20;99.90;;;;;;5013608;28;20478;-62
2022/09/17 06:10:24;;;;;;;15.70;7.23;;;11.10;99.90;;;;;;5013364;28;20516;-62
2022/09/17 06:12:56;;;;;;;15.83;5.73;;;11.10;99.90;;;;;;5013811;28;20473;-62
2022/09/17 06:15:25;;;;;;;15.80;6.00;;;11.20;99.90;;;;;;5016002;28;20565;-62
2022/09/17 06:17:51;;;;;;;17.40;6.73;;;11.20;99.90;;;;;;5009761;28;20485;-61
2022/09/17 06:20:18;;;;;;;19.90;6.00;;;11.20;99.90;;;;;;5016330;28;20508;-62
2022/09/17 06:22:45;;;;;;;14.90;5.77;;;11.30;99.90;;;;;;5012146;28;20489;-63
2022/09/17 06:25:12;;;;;;;15.33;8.50;;;11.30;99.90;;;;;;5014881;28;20473;-63
2022/09/17 06:27:39;;;;;;;20.07;5.57;;;11.40;99.90;;;;;;5013187;28;20478;-63
2022/09/17 06:30:07;;;;;;;20.93;11.30;;;11.40;99.90;;;;;;5007166;28;20481;-62
2022/09/17 06:32:35;;;;;;;18.57;6.37;;;11.40;99.90;;;;;;5023527;28;20859;-63
2022/09/17 06:35:02;;;;;;;23.80;8.27;;;11.50;99.90;;;;;;5016188;28;20489;-62
2022/09/17 06:37:29;;;;;;;15.53;7.80;;;11.40;99.90;;;;;;5012607;28;20485;-62
2022/09/17 06:39:58;;;;;;;18.33;8.90;;;11.50;99.90;;;;;;5015059;28;20484;-62
2022/09/17 06:42:25;;;;;;;17.10;6.40;;;11.50;99.90;;;;;;5015100;28;20497;-62
2022/09/17 06:44:51;;;;;;;14.50;6.20;;;11.50;99.90;;;;;;5012185;28;20726;-63
2022/09/17 06:47:18;;;;;;;20.13;8.50;;;;;;;;;;5019663;28;20493;-62
2022/09/17 06:49:46;;;;;;;19.93;6.30;;;11.50;99.90;;;;;;5014382;28;20480;-62
2022/09/17 06:52:13;;;;;;;16.03;7.97;;;11.50;99.90;;;;;;5014965;28;20483;-62
2022/09/17 06:54:40;;;;;;;25.30;7.70;;;;;;;;;;5014696;28;20844;-61
2022/09/17 06:57:07;;;;;;;36.00;9.50;;;;;;;;;;5015536;28;20488;-62
2022/09/17 06:59:34;;;;;;;24.67;7.60;;;12.10;99.90;;;;;;5013756;28;20497;-62
2022/09/17 07:02:00;;;;;;;26.73;10.43;;;12.80;99.50;;;;;;5014129;28;20829;-62
2022/09/17 07:04:28;;;;;;;15.47;5.63;;;;;;;;;;5015264;28;20517;-62
2022/09/17 07:06:56;;;;;;;14.00;7.47;;;14.30;97.30;;;;;;5014712;28;20477;-62
2022/09/17 07:09:22;;;;;;;15.17;6.73;;;14.80;96.60;;;;;;5014165;28;20485;-62
2022/09/17 07:11:49;;;;;;;13.43;5.73;;;15.00;95.70;;;;;;4982381;28;20861;-62
2022/09/17 07:14:17;;;;;;;19.30;7.20;;;15.60;96.00;;;;;;4995062;28;20480;-62
2022/09/17 07:16:44;;;;;;;6.37;4.43;;;16.20;94.90;;;;;;5009253;28;20472;-63
2022/09/17 07:19:11;;;;;;;16.53;6.83;;;16.10;94.20;;;;;;5012963;28;20532;-62
2022/09/17 07:21:38;;;;;;;11.53;6.40;;;15.90;94.10;;;;;;5001193;28;20494;-63
2022/09/17 07:24:06;;;;;;;18.60;7.50;;;16.10;94.30;;;;;;4994509;28;20486;-63
2022/09/17 07:26:33;;;;;;;25.50;6.60;;;;;;;;;;4990824;28;20566;-64
2022/09/17 07:29:00;;;;;;;17.93;8.80;;;16.80;93.30;;;;;;4992419;28;20493;-63
2022/09/17 07:31:27;;;;;;;26.97;6.00;;;17.10;93.70;;;;;;4995357;28;20482;-62
2022/09/17 07:33:53;;;;;;;18.27;5.40;;;16.80;92.10;;;;;;4994057;28;20838;-62
2022/09/17 07:36:21;;;;;;;25.40;9.03;;;;;;;;;;4993703;28;20476;-62
2022/09/17 07:38:48;;;;;;;23.27;8.73;;;15.60;92.20;;;;;;4994155;28;21051;-63
2022/09/17 07:41:17;;;;;;;24.03;8.60;;;15.20;93.30;;;;;;4995978;28;20482;-61
2022/09/17 07:43:44;;;;;;;26.60;9.60;;;15.00;93.90;;;;;;4995686;28;20486;-61
2022/09/17 07:46:13;;;;;;;26.77;10.37;;;;;;;;;;4996559;28;20482;-62
2022/09/17 07:48:41;;;;;;;16.20;6.87;;;;;;;;;;4997383;28;20485;-62
2022/09/17 07:51:08;;;;;;;14.93;7.07;;;;;;;;;;4997788;28;20851;-61
2022/09/17 07:53:35;;;;;;;16.10;6.23;;;;;;;;;;4995833;28;20482;-61
2022/09/17 07:56:02;;;;;;;17.00;7.53;;;15.40;94.50;;;;;;5004288;28;20476;-62
2022/09/17 07:58:32;;;;;;;17.33;7.43;;;15.60;94.40;;;;;;4994389;28;20485;-62
2022/09/17 08:01:03;;;;;;;14.40;6.80;;;15.80;94.40;;;;;;4998423;28;20517;-62
2022/09/17 08:03:29;;;;;;;33.87;8.27;;;15.90;93.90;;;;;;4998896;28;20493;-61
2022/09/17 08:06:02;;;;;;;22.67;8.07;;;15.80;93.60;;;;;;4998976;28;20862;-62
2022/09/17 08:08:30;;;;;;;29.60;7.80;;;15.80;93.80;;;;;;4997709;28;20551;-61
2022/09/17 08:11:00;;;;;;;10.63;6.80;;;15.90;94.60;;;;;;4995717;28;20547;-61
2022/09/17 08:13:27;;;;;;;16.50;5.07;;;15.90;93.60;;;;;;4998830;28;20693;-61
2022/09/17 08:15:58;;;;;;;16.57;4.60;;;15.70;93.40;;;;;;4983732;28;20477;-61
2022/09/17 08:18:25;;;;;;;19.23;6.93;;;15.80;94.40;;;;;;4999039;28;20493;-61
2022/09/17 08:20:52;;;;;;;15.73;5.43;;;15.70;93.70;;;;;;4994205;28;20493;-61
2022/09/17 08:23:18;;;;;;;12.33;5.00;;;15.60;93.30;;;;;;4998063;28;20496;-61
2022/09/17 08:25:52;;;;;;;9.60;4.77;;;15.40;93.30;;;;;;4998646;28;20488;-61
2022/09/17 08:28:19;;;;;;;7.67;5.20;;;15.40;93.70;;;;;;4996250;28;20485;-62
2022/09/17 08:30:47;;;;;;;11.80;5.20;;;15.50;93.90;;;;;;4996830;28;20731;-61
2022/09/17 08:33:15;;;;;;;17.67;5.90;;;15.40;93.80;;;;;;4998473;28;20915;-62
2022/09/17 08:35:41;;;;;;;29.63;6.47;;;15.50;94.00;;;;;;4983707;28;20482;-61
2022/09/17 08:38:08;;;;;;;37.50;11.03;;;15.50;93.30;;;;;;5010407;28;21024;-62
2022/09/17 08:40:41;;;;;;;22.67;6.97;;;;;;;;;;4991701;28;20896;-62
2022/09/17 08:43:15;;;;;;;46.60;10.97;;;15.80;94.30;;;;;;4995911;28;20836;-61
2022/09/17 08:45:42;;;;;;;29.63;7.97;;;15.90;93.60;;;;;;4997025;28;20517;-62
2022/09/17 08:48:13;;;;;;;57.20;11.83;;;16.00;93.00;;;;;;4996130;28;20486;-62
2022/09/17 08:50:41;;;;;;;34.07;7.13;;;15.70;91.90;;;;;;4997058;28;20473;-63
2022/09/17 08:53:31;;;;;;;37.20;11.00;;;15.80;92.90;;;;;;4997737;28;21107;-61
2022/09/17 08:56:04;;;;;;;31.10;10.37;;;16.00;92.70;;;;;;4997290;28;20481;-62
2022/09/17 08:58:49;;;;;;;26.40;8.50;;;16.00;92.90;;;;;;4985117;28;20477;-62
2022/09/17 09:01:23;;;;;;;26.70;5.97;;;16.40;93.20;;;;;;4993416;28;20493;-61
2022/09/17 09:04:05;;;;;;;19.03;5.43;;;16.50;92.30;;;;;;4997045;28;20845;-63
2022/09/17 09:06:36;;;;;;;13.50;6.20;;;16.50;91.90;;;;;;5001542;28;20500;-62
2022/09/17 09:09:06;;;;;;;36.20;12.07;;;16.50;91.90;;;;;;4984271;28;20473;-62
2022/09/17 09:11:33;;;;;;;29.17;5.90;;;;;;;;;;4993209;28;20480;-62
2022/09/17 09:14:07;;;;;;;26.00;9.27;;;16.70;92.30;;;;;;5000696;28;20474;-62
2022/09/17 09:16:39;;;;;;;18.87;6.20;;;16.50;91.90;;;;;;4986901;28;20786;-63
2022/09/17 09:19:19;;;;;;;15.43;8.90;;;16.40;91.10;;;;;;4992282;28;21248;-62
2022/09/17 09:22:14;;;;;;;19.07;5.17;;;16.30;91.20;;;;;;4989229;28;20506;-62
2022/09/17 09:24:42;;;;;;;14.37;6.17;;;16.20;91.60;;;;;;4973459;28;20490;-62
2022/09/17 09:27:17;;;;;;;31.97;8.00;;;16.20;91.50;;;;;;5002527;28;20490;-63
2022/09/17 09:29:56;;;;;;;18.30;5.13;;;16.20;91.90;;;;;;4985195;28;21037;-62
2022/09/17 09:32:36;;;;;;;36.17;7.93;;;16.30;90.90;;;;;;4994819;28;20500;-63
2022/09/17 09:35:15;;;;;;;98.53;15.67;;;16.50;91.40;;;;;;5000946;28;20544;-63
2022/09/17 09:37:46;;;;;;;41.23;7.40;;;16.60;90.90;;;;;;4997995;28;20754;-63
2022/09/17 09:40:25;;;;;;;84.47;14.07;;;16.70;90.60;;;;;;4995541;28;20489;-62
2022/09/17 09:42:55;;;;;;;29.60;7.43;;;16.90;91.10;;;;;;4995032;28;20482;-63
2022/09/17 09:45:41;;;;;;;36.57;7.37;;;17.20;90.90;;;;;;4996007;28;20482;-63
2022/09/17 09:48:13;;;;;;;62.03;11.90;;;;;;;;;;4993149;28;20466;-62
2022/09/17 09:50:48;;;;;;;25.97;7.70;;;17.50;89.70;;;;;;4992122;28;20481;-62
2022/09/17 09:53:26;;;;;;;16.00;7.00;;;17.60;90.40;;;;;;4996330;28;20485;-62
2022/09/17 09:56:06;;;;;;;19.60;7.03;;;17.50;88.90;;;;;;4998049;28;20490;-62
2022/09/17 09:58:36;;;;;;;31.33;6.50;;;18.40;89.30;;;;;;4996492;28;20474;-63
2022/09/17 10:01:03;;;;;;;32.03;11.23;;;;;;;;;;4994337;28;20477;-63
2022/09/17 10:03:32;;;;;;;25.87;6.67;;;16.80;88.50;;;;;;4992998;28;20485;-63
2022/09/17 10:06:00;;;;;;;19.13;6.93;;;16.50;89.00;;;;;;4996299;28;20896;-62
2022/09/17 10:08:30;;;;;;;28.20;8.83;;;;;;;;;;4998923;28;20528;-62
2022/09/17 10:11:01;;;;;;;27.67;6.93;;;16.10;91.50;;;;;;4994920;28;20494;-62
2022/09/17 10:13:30;;;;;;;18.40;5.60;;;15.90;91.50;;;;;;4994391;28;20882;-62
2022/09/17 10:15:58;;;;;;;25.07;8.77;;;;;;;;;;4988715;28;20482;-63
2022/09/17 10:18:25;;;;;;;17.70;6.77;;;15.80;92.60;;;;;;5006340;28;20565;-62
2022/09/17 10:20:58;;;;;;;14.03;4.33;;;15.70;91.10;;;;;;4986376;28;20498;-63
2022/09/17 10:23:28;;;;;;;22.30;6.17;;;15.70;92.60;;;;;;5000459;28;20646;-62
2022/09/17 10:25:56;;;;;;;22.07;6.47;;;15.90;94.20;;;;;;5002840;28;20470;-62
2022/09/17 10:28:44;;;;;;;22.20;5.97;;;16.10;93.70;;;;;;4995480;28;20490;-62
2022/09/17 10:31:11;;;;;;;18.80;7.87;;;16.10;93.10;;;;;;4991960;28;20571;-62
2022/09/17 10:33:50;;;;;;;13.40;5.93;;;;;;;;;;4995622;28;20493;-63
2022/09/17 10:36:34;;;;;;;13.63;5.93;;;15.90;93.30;;;;;;4993364;28;20478;-61
2022/09/17 10:39:19;;;;;;;20.43;9.70;;;15.60;93.30;;;;;;4991224;28;20482;-63
2022/09/17 10:41:54;;;;;;;13.73;4.50;;;15.50;94.20;;;;;;4985817;28;20482;-62
2022/09/17 10:44:22;;;;;;;12.00;5.53;;;15.60;94.80;;;;;;4997095;28;20702;-62
2022/09/17 10:46:49;;;;;;;5.83;3.90;;;15.40;95.00;;;;;;4996232;28;21053;-62
2022/09/17 10:49:31;;;;;;;12.60;5.37;;;15.50;95.40;;;;;;4993439;28;20896;-62
2022/09/17 10:52:05;;;;;;;19.20;8.60;;;;;;;;;;4994253;28;20485;-62
2022/09/17 10:54:52;;;;;;;7.20;4.47;;;15.50;95.60;;;;;;4996459;28;20494;-62
2022/09/17 10:57:29;;;;;;;14.20;5.80;;;15.40;95.10;;;;;;4981812;28;20486;-62
2022/09/17 11:00:08;;;;;;;18.70;7.37;;;15.30;96.00;;;;;;4991056;28;20486;-62
2022/09/17 11:03:09;;;;;;;12.17;5.73;;;15.10;95.40;;;;;;4993628;28;20865;-63
2022/09/17 11:05:44;;;;;;;13.13;5.30;;;;;;;;;;4992248;28;20492;-62
2022/09/17 11:08:17;;;;;;;24.50;10.10;;;;;;;;;;4993504;28;20473;-63
2022/09/17 11:10:54;;;;;;;12.10;5.53;;;15.10;96.70;;;;;;5010689;28;20465;-63
2022/09/17 11:13:29;;;;;;;10.93;4.60;;;15.10;97.10;;;;;;4998720;28;21160;-62
2022/09/17 11:16:10;;;;;;;13.13;7.27;;;15.20;97.10;;;;;;5024027;28;20465;-63
2022/09/17 11:18:40;;;;;;;26.00;6.30;;;15.40;97.90;;;;;;5015755;28;20489;-63
2022/09/17 11:21:29;;;;;;;32.43;9.70;;;15.70;97.90;;;;;;5003881;28;20477;-63
2022/09/17 11:24:26;;;;;;;14.47;7.37;;;16.10;98.10;;;;;;4998261;28;20489;-63
2022/09/17 11:27:03;;;;;;;30.17;5.40;;;16.40;97.90;;;;;;4992025;28;20557;-62
2022/09/17 11:29:43;;;;;;;19.63;7.10;;;16.80;97.00;;;;;;5001502;28;20565;-62
2022/09/17 11:32:26;;;;;;;22.73;10.30;;;17.30;96.50;;;;;;5004139;28;20489;-63
2022/09/17 11:34:59;;;;;;;15.20;5.83;;;17.50;94.50;;;;;;5004880;28;20489;-63
2022/09/17 11:37:31;;;;;;;17.37;6.00;;;17.60;93.80;;;;;;5000975;28;20551;-62
2022/09/17 11:40:00;;;;;;;10.37;5.87;;;17.90;95.00;;;;;;5012356;28;20507;-62
2022/09/17 11:42:32;;;;;;;24.43;6.70;;;17.90;91.00;;;;;;5009692;28;21000;-63
2022/09/17 11:45:04;;;;;;;22.33;7.60;;;18.00;91.50;;;;;;5013473;28;20800;-63
2022/09/17 11:47:35;;;;;;;18.10;8.47;;;18.00;92.50;;;;;;5012744;28;20508;-62
2022/09/17 11:50:06;;;;;;;29.73;10.37;;;18.00;91.80;;;;;;5011782;28;20507;-63
2022/09/17 11:52:38;;;;;;;16.40;5.83;;;17.90;91.40;;;;;;5014433;28;20499;-63
2022/09/17 11:55:16;;;;;;;23.63;9.33;;;17.70;90.30;;;;;;5013410;28;20962;-63
2022/09/17 11:57:46;;;;;;;30.33;8.10;;;17.60;90.50;;;;;;5011273;28;20856;-63
2022/09/17 12:00:15;;;;;;;74.03;12.33;;;17.70;90.60;;;;;;5018879;28;20484;-62
2022/09/17 12:02:50;;;;;;;47.90;9.83;;;17.70;90.20;;;;;;5014229;28;20488;-63
2022/09/17 12:05:20;;;;;;;45.60;8.13;;;17.80;90.70;;;;;;5012662;28;20972;-63
2022/09/17 12:07:53;;;;;;;56.93;9.77;;;17.70;90.30;;;;;;5008378;28;20477;-63
2022/09/17 12:10:34;;;;;;;27.07;6.33;;;17.50;88.30;;;;;;5010924;28;20477;-62
2022/09/17 12:13:07;;;;;;;24.87;7.97;;;17.10;89.10;;;;;;5002945;28;20473;-62
2022/09/17 12:15:38;;;;;;;22.87;6.97;;;16.70;90.80;;;;;;5011073;28;20480;-62
2022/09/17 12:18:17;;;;;;;27.53;8.03;;;;;;;;;;5010301;28;20508;-62
2022/09/17 12:20:48;;;;;;;32.70;7.13;;;16.40;92.00;;;;;;5012140;28;20473;-62
2022/09/17 12:23:19;;;;;;;15.00;5.53;;;16.60;93.70;;;;;;5009485;28;21025;-62
2022/09/17 12:25:52;;;;;;;22.57;4.30;;;16.80;92.70;;;;;;5023550;28;20488;-62
2022/09/17 12:28:27;;;;;;;15.17;6.50;;;17.10;93.80;;;;;;5015969;28;20484;-62
2022/09/17 12:31:01;;;;;;;21.00;5.87;;;17.40;93.70;;;;;;5007376;28;21074;-63
2022/09/17 12:33:34;;;;;;;21.30;6.70;;;17.20;91.40;;;;;;5018469;28;20480;-63
2022/09/17 12:36:21;;;;;;;16.10;6.17;;;17.40;92.70;;;;;;5017821;28;20843;-62
2022/09/17 12:39:14;;;;;;;9.40;5.47;;;17.40;91.50;;;;;;5014716;28;20500;-62
2022/09/17 12:41:52;;;;;;;17.33;6.00;;;20.10;92.70;;;;;;5015549;28;20883;-63
2022/09/17 12:44:51;;;;;;;14.23;6.67;;;16.80;91.80;;;;;;5015079;28;20489;-63
2022/09/17 12:47:40;;;;;;;15.10;6.43;;;16.70;93.40;;;;;;5013634;28;20488;-62
2022/09/17 12:50:19;;;;;;;42.70;10.77;;;16.50;93.60;;;;;;5012851;28;20767;-63
2022/09/17 12:53:01;;;;;;;15.60;5.70;;;16.50;93.00;;;;;;5014964;28;20481;-62
2022/09/17 12:55:36;;;;;;;22.50;6.70;;;16.60;94.50;;;;;;5017201;28;20477;-63
2022/09/17 12:58:12;;;;;;;32.27;12.40;;;16.80;93.70;;;;;;5002869;28;20511;-62
2022/09/17 13:00:45;;;;;;;16.13;6.60;;;16.90;92.80;;;;;;5015633;28;20484;-63
2022/09/17 13:03:19;;;;;;;28.03;7.93;;;17.20;92.00;;;;;;5013804;28;20488;-62
2022/09/17 13:06:16;;;;;;;13.03;5.07;;;17.40;93.50;;;;;;5016297;28;20555;-63
2022/09/17 13:09:04;;;;;;;18.77;5.83;;;17.80;94.10;;;;;;5012891;28;21032;-62
2022/09/17 13:12:06;;;;;;;27.37;8.17;;;18.00;93.30;;;;;;5003650;28;20558;-63